Time;durP1;ratioP1;P1;durP2;ratioP2;P2;SDS_P1;SDS_P2;PMS_P1;PMS_P2;Temp;Humidity;BMP_temperature;BMP_pressure;BME280_temperature;BME280_humidity;BME280_pressure;Samples;Min_cycle;Max_cycle;Signal;HPM_P1;HPM_P2
2023/12/15 00:01:03;;;;;;;;;;;;;;;;;;;;;
2023/12/15 00:06:42;;;;;;;0.45;0.45;;;;;;;;;;4966910;28;20044;-79
2023/12/15 00:10:06;;;;;;;0.20;0.20;;;;;;;;;;4965707;28;20051;-80
2023/12/15 00:12:42;;;;;;;;;;;;;;;;;;;;;
2023/12/15 00:26:24;;;;;;;;;;;;;;;;;;;;;
2023/12/15 00:29:06;;;;;;;3.35;0.40;;;;;;;;;;4935328;29;20043;-78
2023/12/15 00:32:10;;;;;;;0.20;0.20;;;;;;;;;;4889783;29;20052;-81
2023/12/15 00:35:15;;;;;;;0.30;0.30;;;;;;;;;;4941926;28;20054;-81
2023/12/15 00:38:35;;;;;;;0.30;0.30;;;;;;;;;;5022142;28;20266;-80
2023/12/15 00:41:44;;;;;;;0.30;0.30;;;;;;;;;;5027076;28;20041;-80
2023/12/15 00:44:22;;;;;;;0.20;0.20;;;;;;;;;;4982667;28;20148;-81
2023/12/15 00:47:10;;;;;;;;;;;;;;;;;;;;;
2023/12/15 00:50:05;;;;;;;0.20;0.20;;;;;;;;;;5041910;28;20040;-82
2023/12/15 00:52:36;;;;;;;0.20;0.20;;;;;;;;;;5085027;28;20469;-83
2023/12/15 00:55:15;;;;;;;0.20;0.20;;;;;;;;;;5053122;28;20079;-79
2023/12/15 00:57:41;;;;;;;0.20;0.20;;;;;;;;;;5052344;28;20390;-80
2023/12/15 01:00:14;;;;;;;0.20;0.20;;;;;;;;;;5054560;28;20032;-81
2023/12/15 01:02:52;;;;;;;0.10;0.10;;;;;;;;;;5055497;28;20060;-81
2023/12/15 01:05:27;;;;;;;0.13;0.13;;;;;;;;;;5083160;28;20532;-82
2023/12/15 01:08:03;;;;;;;0.20;0.20;;;;;;;;;;5054712;28;20021;-81
2023/12/15 01:10:35;;;;;;;0.20;0.20;;;;;;;;;;5055097;28;20029;-81
2023/12/15 01:13:07;;;;;;;0.20;0.20;;;;;;;;;;5053585;28;20297;-81
2023/12/15 01:15:39;;;;;;;0.20;0.20;;;;;;;;;;5053096;28;20025;-81
2023/12/15 01:18:08;;;;;;;0.35;0.35;;;;;;;;;;5052897;28;20029;-79
2023/12/15 01:20:34;;;;;;;0.43;0.40;;;;;;;;;;5055269;28;20025;-80
2023/12/15 01:23:05;;;;;;;0.20;0.20;;;;;;;;;;5054778;28;20083;-83
2023/12/15 01:25:40;;;;;;;0.20;0.20;;;;;;;;;;5051964;28;20056;-82
2023/12/15 01:28:31;;;;;;;0.30;0.30;;;;;;;;;;5054707;28;20021;-81
2023/12/15 01:31:13;;;;;;;0.40;0.40;;;;;;;;;;5049617;28;20040;-79
2023/12/15 01:33:46;;;;;;;0.20;0.20;;;;;;;;;;5053231;28;20392;-78
2023/12/15 01:36:18;;;;;;;0.10;0.10;;;;;;;;;;5053339;28;20111;-79
2023/12/15 01:38:56;;;;;;;0.63;0.50;;;;;;;;;;5055679;28;20056;-80
2023/12/15 01:41:42;;;;;;;0.20;0.20;;;;;;;;;;5053123;28;20091;-81
2023/12/15 01:44:12;;;;;;;0.90;0.70;;;;;;;;;;5051945;28;20037;-80
2023/12/15 01:46:38;;;;;;;0.10;0.10;;;;;;;;;;5053976;28;20024;-80
2023/12/15 01:49:16;;;;;;;0.20;0.20;;;;;;;;;;5053236;28;20510;-79
2023/12/15 01:51:59;;;;;;;0.20;0.20;;;;;;;;;;5053788;28;20525;-80
2023/12/15 01:54:40;;;;;;;0.20;0.20;;;;;;;;;;5054133;28;20115;-81
2023/12/15 01:57:15;;;;;;;0.20;0.20;;;;;;;;;;5052205;28;20056;-80
2023/12/15 02:00:13;;;;;;;5.70;0.40;;;;;;;;;;5053521;28;20043;-81
2023/12/15 02:03:04;;;;;;;0.40;0.40;;;;;;;;;;5032559;28;20053;-79
2023/12/15 02:05:42;;;;;;;0.13;0.13;;;;;;;;;;5034031;28;20037;-81
2023/12/15 02:09:16;;;;;;;;;;;;;;;;;;;;;
2023/12/15 02:11:51;;;;;;;0.30;0.30;;;;;;;;;;4955587;28;20545;-80
2023/12/15 02:14:23;;;;;;;0.20;0.20;;;;;;;;;;4940427;28;20042;-81
2023/12/15 02:16:54;;;;;;;0.30;0.30;;;;;;;;;;5006383;28;20118;-79
2023/12/15 02:19:20;;;;;;;0.63;0.63;;;;;;;;;;5022842;28;20440;-81
2023/12/15 02:21:53;;;;;;;0.25;0.25;;;;;;;;;;5060946;28;20094;-78
2023/12/15 02:24:19;;;;;;;0.55;0.40;;;;;;;;;;5055935;28;20070;-79
2023/12/15 02:26:44;;;;;;;1.45;0.77;;;;;;;;;;5059222;28;20028;-80
2023/12/15 02:29:09;;;;;;;0.75;0.50;;;;;;;;;;5058957;28;21452;-78
2023/12/15 02:31:35;;;;;;;1.20;0.68;;;;;;;;;;5059934;28;20460;-80
2023/12/15 02:34:00;;;;;;;1.55;1.15;;;;;;;;;;5055191;28;20032;-80
2023/12/15 02:36:26;;;;;;;1.50;1.15;;;;;;;;;;5058758;28;20087;-81
2023/12/15 02:38:51;;;;;;;4.25;0.98;;;;;;;;;;5059890;28;20033;-80
2023/12/15 02:41:17;;;;;;;0.52;0.50;;;;;;;;;;5057151;28;20033;-78
2023/12/15 02:43:42;;;;;;;1.27;0.98;;;;;;;;;;5060916;28;20467;-82
2023/12/15 02:46:08;;;;;;;1.65;0.68;;;;;;;;;;5058822;28;20111;-80
2023/12/15 02:48:34;;;;;;;0.35;0.35;;;;;;;;;;5060261;28;20064;-79
2023/12/15 02:51:00;;;;;;;0.73;0.68;;;;;;;;;;5056990;28;20388;-82
2023/12/15 02:53:27;;;;;;;0.90;0.77;;;;;;;;;;5058215;28;20044;-82
2023/12/15 02:55:55;;;;;;;0.80;0.52;;;;;;;;;;5060100;28;20535;-80
2023/12/15 02:58:20;;;;;;;2.63;1.02;;;;;;;;;;5057675;28;20083;-80
2023/12/15 03:00:48;;;;;;;1.77;0.82;;;;;;;;;;5054559;28;20561;-79
2023/12/15 03:03:14;;;;;;;2.25;1.33;;;;;;;;;;5052611;28;20039;-81
2023/12/15 03:05:40;;;;;;;0.80;0.68;;;;;;;;;;5054306;28;20513;-81
2023/12/15 03:08:08;;;;;;;0.75;0.50;;;;;;;;;;5055172;28;20036;-80
2023/12/15 03:10:34;;;;;;;6.43;0.82;;;;;;;;;;5056179;28;20032;-81
2023/12/15 03:13:00;;;;;;;0.30;0.30;;;;;;;;;;5056973;28;20044;-79
2023/12/15 03:15:26;;;;;;;0.47;0.47;;;;;;;;;;5059436;28;20025;-80
2023/12/15 03:17:51;;;;;;;0.68;0.68;;;;;;;;;;5059413;28;20032;-81
2023/12/15 03:20:17;;;;;;;1.13;0.93;;;;;;;;;;5058565;28;20029;-80
2023/12/15 03:22:43;;;;;;;1.08;0.60;;;;;;;;;;5060836;28;20059;-81
2023/12/15 03:25:09;;;;;;;2.03;1.45;;;;;;;;;;5060269;28;20020;-83
2023/12/15 03:27:34;;;;;;;0.60;0.60;;;;;;;;;;5056847;28;20118;-78
2023/12/15 03:30:00;;;;;;;1.05;1.05;;;;;;;;;;5058065;28;20036;-79
2023/12/15 03:32:25;;;;;;;0.68;0.60;;;;;;;;;;5058686;28;20466;-84
2023/12/15 03:34:51;;;;;;;0.90;0.73;;;;;;;;;;5061155;28;20028;-83
2023/12/15 03:37:16;;;;;;;2.42;1.58;;;;;;;;;;5057545;28;20029;-82
2023/12/15 03:39:45;;;;;;;2.15;1.58;;;;;;;;;;5059272;28;20032;-85
2023/12/15 03:42:11;;;;;;;3.67;1.60;;;;;;;;;;5057282;28;20033;-82
2023/12/15 03:44:39;;;;;;;3.45;1.33;;;;;;;;;;5056166;28;20017;-79
2023/12/15 03:47:06;;;;;;;2.42;1.52;;;;;;;;;;5057527;28;20116;-80
2023/12/15 03:49:34;;;;;;;2.50;1.75;;;;;;;;;;5059847;28;20518;-81
2023/12/15 03:52:00;;;;;;;1.58;1.48;;;;;;;;;;5060373;28;20021;-84
2023/12/15 03:54:25;;;;;;;1.60;1.50;;;;;;;;;;5059266;28;20029;-81
2023/12/15 03:56:57;;;;;;;2.08;1.50;;;;;;;;;;5059762;28;20045;-79
2023/12/15 03:59:24;;;;;;;2.95;2.25;;;;;;;;;;5058310;28;20035;-81
2023/12/15 04:01:50;;;;;;;1.33;1.23;;;;;;;;;;5055618;28;20113;-81
2023/12/15 04:04:15;;;;;;;1.48;1.27;;;;;;;;;;5057442;28;20103;-82
2023/12/15 04:06:41;;;;;;;3.10;1.42;;;;;;;;;;5058027;28;20024;-81
2023/12/15 04:09:09;;;;;;;1.02;0.95;;;;;;;;;;5057035;28;20138;-81
2023/12/15 04:11:35;;;;;;;1.73;1.23;;;;;;;;;;5057352;28;20047;-83
2023/12/15 04:14:01;;;;;;;2.42;1.58;;;;;;;;;;5058442;28;20033;-81
2023/12/15 04:16:26;;;;;;;0.55;0.55;;;;;;;;;;5058122;28;20029;-79
2023/12/15 04:18:52;;;;;;;1.38;1.33;;;;;;;;;;5057556;28;20029;-82
2023/12/15 04:21:17;;;;;;;2.10;1.58;;;;;;;;;;5053844;28;20053;-81
2023/12/15 04:23:42;;;;;;;1.50;1.40;;;;;;;;;;5041066;28;20050;-82
2023/12/15 04:26:08;;;;;;;3.55;1.85;;;;;;;;;;5057967;28;20025;-80
2023/12/15 04:28:33;;;;;;;4.53;1.85;;;;;;;;;;5053632;28;20366;-82
2023/12/15 04:30:59;;;;;;;6.50;1.95;;;;;;;;;;5055120;28;20360;-83
2023/12/15 04:33:24;;;;;;;1.85;1.42;;;;;;;;;;5059687;28;20509;-84
2023/12/15 04:35:53;;;;;;;1.02;1.02;;;;;;;;;;5055973;28;20726;-81
2023/12/15 04:38:19;;;;;;;3.83;1.85;;;;;;;;;;5051498;28;20051;-81
2023/12/15 04:40:44;;;;;;;4.00;2.58;;;;;;;;;;5055155;28;20539;-78
2023/12/15 04:43:10;;;;;;;2.47;1.70;;;;;;;;;;5051992;28;20027;-80
2023/12/15 04:45:35;;;;;;;1.40;1.05;;;;;;;;;;5052783;28;20032;-79
2023/12/15 04:48:01;;;;;;;2.35;1.40;;;;;;;;;;5052598;28;20021;-81
2023/12/15 04:50:26;;;;;;;1.75;0.90;;;;;;;;;;5049304;28;20029;-80
2023/12/15 04:52:51;;;;;;;1.15;0.93;;;;;;;;;;5048142;28;20037;-81
2023/12/15 04:55:17;;;;;;;3.20;1.50;;;;;;;;;;5052016;28;20025;-80
2023/12/15 04:57:42;;;;;;;1.52;1.42;;;;;;;;;;5054213;28;20049;-81
2023/12/15 05:00:15;;;;;;;1.65;1.02;;;;;;;;;;5050927;28;20461;-80
2023/12/15 05:02:41;;;;;;;1.27;1.17;;;;;;;;;;5053595;28;20035;-79
2023/12/15 05:05:07;;;;;;;0.50;0.50;;;;;;;;;;5050507;28;20389;-78
2023/12/15 05:07:36;;;;;;;3.35;1.73;;;;;;;;;;5052192;28;20028;-80
2023/12/15 05:10:03;;;;;;;2.85;1.52;;;;;;;;;;5049880;28;20123;-79
2023/12/15 05:12:33;;;;;;;1.00;0.90;;;;;;;;;;5051028;28;20111;-79
2023/12/15 05:14:58;;;;;;;3.10;1.77;;;;;;;;;;5046789;28;20056;-80
2023/12/15 05:17:24;;;;;;;1.52;1.42;;;;;;;;;;5048589;28;20059;-81
2023/12/15 05:19:52;;;;;;;1.17;1.05;;;;;;;;;;5048992;28;20036;-80
2023/12/15 05:22:17;;;;;;;4.03;1.50;;;;;;;;;;5048797;28;20154;-80
2023/12/15 05:24:45;;;;;;;1.50;1.25;;;;;;;;;;5049459;28;20123;-79
2023/12/15 05:27:11;;;;;;;0.70;0.65;;;;;;;;;;5048665;28;20033;-79
2023/12/15 05:29:43;;;;;;;2.28;1.55;;;;;;;;;;5050674;28;20039;-80
2023/12/15 05:32:09;;;;;;;0.82;0.68;;;;;;;;;;5078356;28;20123;-80
2023/12/15 05:34:34;;;;;;;1.20;1.10;;;;;;;;;;5049299;28;20025;-80
2023/12/15 05:37:00;;;;;;;1.85;1.75;;;;;;;;;;5049735;28;20115;-80
2023/12/15 05:39:25;;;;;;;1.10;1.02;;;;;;;;;;5048796;28;20175;-78
2023/12/15 05:41:51;;;;;;;4.00;1.55;;;;;;;;;;5053925;28;20088;-81
2023/12/15 05:44:16;;;;;;;1.15;1.05;;;;;;;;;;5051621;28;20036;-80
2023/12/15 05:46:42;;;;;;;2.20;1.35;;;;;;;;;;5053054;28;20099;-79
2023/12/15 05:49:10;;;;;;;2.67;2.05;;;;;;;;;;5052475;28;20029;-78
2023/12/15 05:51:35;;;;;;;1.35;0.68;;;;;;;;;;5054658;28;20451;-80
2023/12/15 05:54:01;;;;;;;3.78;1.35;;;;;;;;;;5053098;28;20052;-78
2023/12/15 05:56:26;;;;;;;2.25;2.05;;;;;;;;;;5055301;28;20102;-78
2023/12/15 05:58:56;;;;;;;1.23;1.17;;;;;;;;;;5052598;28;20502;-79
2023/12/15 06:01:22;;;;;;;2.05;1.52;;;;;;;;;;5053029;28;20057;-79
2023/12/15 06:03:48;;;;;;;1.17;0.98;;;;;;;;;;5053460;28;20052;-81
2023/12/15 06:06:14;;;;;;;1.33;1.02;;;;;;;;;;5052857;28;20033;-78
2023/12/15 06:08:39;;;;;;;1.20;1.02;;;;;;;;;;5052204;28;20059;-78
2023/12/15 06:11:05;;;;;;;1.10;1.00;;;;;;;;;;5051409;28;20035;-80
2023/12/15 06:13:30;;;;;;;1.48;1.35;;;;;;;;;;5052300;28;20092;-80
2023/12/15 06:15:56;;;;;;;1.90;1.27;;;;;;;;;;5055821;28;20461;-81
2023/12/15 06:18:21;;;;;;;1.52;0.95;;;;;;;;;;5050232;28;20037;-79
2023/12/15 06:20:47;;;;;;;1.10;1.02;;;;;;;;;;5049728;28;20036;-78
2023/12/15 06:23:13;;;;;;;1.02;0.93;;;;;;;;;;5050531;28;20036;-79
2023/12/15 06:25:38;;;;;;;5.15;2.35;;;;;;;;;;5051768;28;20032;-82
2023/12/15 06:28:07;;;;;;;0.45;0.45;;;;;;;;;;5082527;28;20025;-79
2023/12/15 06:30:32;;;;;;;2.95;2.17;;;;;;;;;;5051533;28;20039;-82
2023/12/15 06:32:57;;;;;;;2.28;1.95;;;;;;;;;;5049838;28;20497;-80
2023/12/15 06:35:23;;;;;;;3.60;0.98;;;;;;;;;;5052791;28;20029;-82
2023/12/15 06:37:50;;;;;;;3.45;1.67;;;;;;;;;;5050702;28;20102;-79
2023/12/15 06:40:15;;;;;;;1.60;1.45;;;;;;;;;;5051890;28;20040;-82
2023/12/15 06:42:41;;;;;;;3.30;1.45;;;;;;;;;;5053211;28;20798;-82
2023/12/15 06:45:08;;;;;;;2.38;1.92;;;;;;;;;;5052680;28;20147;-79
2023/12/15 06:47:36;;;;;;;2.30;1.05;;;;;;;;;;5052831;28;20037;-81
2023/12/15 06:50:01;;;;;;;1.02;0.93;;;;;;;;;;5052560;28;20025;-79
2023/12/15 06:52:26;;;;;;;1.70;1.35;;;;;;;;;;5050869;28;20087;-81
2023/12/15 06:54:52;;;;;;;2.72;1.95;;;;;;;;;;5052443;28;20040;-79
2023/12/15 06:57:17;;;;;;;2.42;1.70;;;;;;;;;;5051938;28;20049;-80
2023/12/15 06:59:43;;;;;;;0.85;0.73;;;;;;;;;;5050694;28;20390;-82
2023/12/15 07:02:08;;;;;;;1.63;1.52;;;;;;;;;;5053729;28;20032;-81
2023/12/15 07:04:34;;;;;;;1.48;1.08;;;;;;;;;;5051042;28;20145;-87
2023/12/15 07:06:59;;;;;;;1.73;1.15;;;;;;;;;;5050018;28;20503;-79
2023/12/15 07:09:24;;;;;;;0.88;0.77;;;;;;;;;;5050037;28;20028;-79
2023/12/15 07:11:50;;;;;;;3.42;0.98;;;;;;;;;;5047790;28;20037;-80
2023/12/15 07:14:15;;;;;;;2.00;1.00;;;;;;;;;;5049899;28;20124;-79
2023/12/15 07:16:41;;;;;;;0.60;0.60;;;;;;;;;;5051687;28;20025;-81
2023/12/15 07:19:06;;;;;;;0.73;0.73;;;;;;;;;;5051782;28;20147;-81
2023/12/15 07:21:31;;;;;;;1.38;1.15;;;;;;;;;;5050700;28;20078;-80
2023/12/15 07:23:57;;;;;;;0.90;0.90;;;;;;;;;;5049904;28;20029;-81
2023/12/15 07:26:22;;;;;;;0.93;0.93;;;;;;;;;;5055999;28;20029;-82
2023/12/15 07:28:48;;;;;;;1.45;1.08;;;;;;;;;;5050148;28;20037;-84
2023/12/15 07:31:13;;;;;;;1.45;0.98;;;;;;;;;;5044235;28;20029;-79
2023/12/15 07:33:38;;;;;;;0.82;0.80;;;;;;;;;;5046627;28;20040;-80
2023/12/15 07:36:05;;;;;;;1.52;1.42;;;;;;;;;;5045711;28;20029;-80
2023/12/15 07:38:31;;;;;;;0.73;0.73;;;;;;;;;;5048662;28;20041;-79
2023/12/15 07:40:56;;;;;;;1.15;1.02;;;;;;;;;;5044159;28;20044;-79
2023/12/15 07:43:21;;;;;;;1.23;0.77;;;;;;;;;;5044075;28;20027;-80
2023/12/15 07:45:47;;;;;;;1.35;1.25;;;;;;;;;;5079011;28;20025;-80
2023/12/15 07:48:13;;;;;;;2.80;1.60;;;;;;;;;;5046961;28;20056;-80
2023/12/15 07:50:39;;;;;;;5.28;2.75;;;;;;;;;;5046517;28;20029;-80
2023/12/15 07:53:05;;;;;;;0.82;0.82;;;;;;;;;;5043737;28;20025;-79
2023/12/15 07:55:30;;;;;;;0.80;0.80;;;;;;;;;;5046313;28;20025;-81
2023/12/15 07:57:56;;;;;;;1.50;1.17;;;;;;;;;;5046807;28;20045;-79
2023/12/15 08:00:22;;;;;;;2.58;1.52;;;;;;;;;;5049549;28;20056;-80
2023/12/15 08:02:48;;;;;;;2.75;1.40;;;;;;;;;;5052573;28;20025;-80
2023/12/15 08:05:14;;;;;;;4.40;1.80;;;;;;;;;;5052354;28;20420;-79
2023/12/15 08:07:42;;;;;;;2.42;1.33;;;;;;;;;;5051527;28;20037;-82
2023/12/15 08:10:08;;;;;;;2.60;1.92;;;;;;;;;;5049720;28;20029;-81
2023/12/15 08:12:33;;;;;;;2.33;1.63;;;;;;;;;;5051157;28;20113;-80
2023/12/15 08:14:59;;;;;;;1.42;1.33;;;;;;;;;;5048779;28;20025;-78
2023/12/15 08:17:25;;;;;;;1.42;1.33;;;;;;;;;;5049802;28;20025;-80
2023/12/15 08:19:50;;;;;;;1.45;1.35;;;;;;;;;;5050061;28;20350;-86
2023/12/15 08:22:15;;;;;;;2.65;2.10;;;;;;;;;;5050259;28;20123;-79
2023/12/15 08:24:42;;;;;;;3.45;1.60;;;;;;;;;;5049757;28;20469;-78
2023/12/15 08:27:08;;;;;;;2.70;2.00;;;;;;;;;;5048205;28;20024;-78
2023/12/15 08:29:34;;;;;;;0.80;0.80;;;;;;;;;;5050239;28;20052;-81
2023/12/15 08:31:59;;;;;;;0.55;0.55;;;;;;;;;;5050989;28;20028;-80
2023/12/15 08:34:26;;;;;;;1.55;1.30;;;;;;;;;;5049433;28;20100;-80
2023/12/15 08:36:51;;;;;;;1.42;0.88;;;;;;;;;;5049518;28;20473;-81
2023/12/15 08:39:17;;;;;;;0.38;0.38;;;;;;;;;;5048649;28;20112;-80
2023/12/15 08:41:42;;;;;;;1.90;0.95;;;;;;;;;;5049960;28;20044;-79
2023/12/15 08:44:08;;;;;;;0.22;0.22;;;;;;;;;;5049995;28;20025;-78
2023/12/15 08:46:35;;;;;;;0.47;0.47;;;;;;;;;;5047892;28;20378;-79
2023/12/15 08:49:00;;;;;;;0.30;0.30;;;;;;;;;;5049431;28;20051;-80
2023/12/15 08:51:26;;;;;;;0.98;0.63;;;;;;;;;;5048541;28;20024;-79
2023/12/15 08:53:51;;;;;;;0.40;0.40;;;;;;;;;;5048661;28;20029;-78
2023/12/15 08:56:17;;;;;;;0.75;0.75;;;;;;;;;;5047463;28;20031;-80
2023/12/15 08:58:42;;;;;;;0.63;0.63;;;;;;;;;;5047267;28;20029;-79
2023/12/15 09:01:07;;;;;;;0.98;0.98;;;;;;;;;;5047443;28;20136;-78
2023/12/15 09:03:34;;;;;;;1.40;0.98;;;;;;;;;;5048697;28;20083;-80
2023/12/15 09:05:59;;;;;;;1.90;1.10;;;;;;;;;;5048368;28;20420;-79
2023/12/15 09:08:25;;;;;;;1.00;0.77;;;;;;;;;;5047652;28;20028;-79
2023/12/15 09:10:51;;;;;;;1.00;0.57;;;;;;;;;;5048821;28;20112;-79
2023/12/15 09:13:20;;;;;;;0.68;0.65;;;;;;;;;;5047037;28;20043;-79
2023/12/15 09:15:46;;;;;;;0.93;0.93;;;;;;;;;;5046003;28;20063;-81
2023/12/15 09:18:13;;;;;;;2.13;1.35;;;;;;;;;;5046632;28;20025;-80
2023/12/15 09:20:39;;;;;;;1.48;1.15;;;;;;;;;;5046292;28;20469;-78
2023/12/15 09:23:09;;;;;;;1.42;1.33;;;;;;;;;;5046748;28;20033;-79
2023/12/15 09:25:34;;;;;;;2.30;2.10;;;;;;;;;;5045601;28;20037;-77
2023/12/15 09:28:03;;;;;;;2.92;1.85;;;;;;;;;;5046893;28;20035;-80
2023/12/15 09:30:29;;;;;;;2.28;1.70;;;;;;;;;;5047914;28;20029;-78
2023/12/15 09:32:54;;;;;;;1.95;1.35;;;;;;;;;;5046681;28;20028;-78
2023/12/15 09:35:19;;;;;;;1.65;1.48;;;;;;;;;;5046984;28;21708;-80
2023/12/15 09:37:45;;;;;;;2.67;1.48;;;;;;;;;;5048729;28;20024;-80
2023/12/15 09:40:13;;;;;;;2.08;1.88;;;;;;;;;;5046793;28;20574;-79
2023/12/15 09:42:38;;;;;;;1.67;1.20;;;;;;;;;;5048588;28;20112;-80
2023/12/15 09:45:04;;;;;;;1.73;1.35;;;;;;;;;;5044600;28;20104;-78
2023/12/15 09:47:31;;;;;;;1.23;1.08;;;;;;;;;;5047861;28;20024;-79
2023/12/15 09:50:03;;;;;;;1.48;1.38;;;;;;;;;;5048274;28;20024;-82
2023/12/15 09:52:32;;;;;;;1.00;0.90;;;;;;;;;;5045912;28;20033;-80
2023/12/15 09:54:59;;;;;;;1.88;1.75;;;;;;;;;;5046669;28;20072;-79
2023/12/15 09:57:24;;;;;;;2.22;1.20;;;;;;;;;;5047034;28;20115;-79
2023/12/15 09:59:51;;;;;;;2.28;1.70;;;;;;;;;;5049389;28;20113;-80
2023/12/15 10:02:17;;;;;;;1.20;1.08;;;;;;;;;;5048226;28;20029;-80
2023/12/15 10:04:42;;;;;;;1.45;1.13;;;;;;;;;;5048123;28;20017;-82
2023/12/15 10:07:08;;;;;;;3.33;1.73;;;;;;;;;;5048422;28;20029;-82
2023/12/15 10:09:38;;;;;;;3.20;2.10;;;;;;;;;;5047016;28;20029;-82
2023/12/15 10:12:08;;;;;;;2.28;1.30;;;;;;;;;;5046707;28;20029;-82
2023/12/15 10:14:38;;;;;;;1.58;1.48;;;;;;;;;;5045988;28;20104;-81
2023/12/15 10:17:09;;;;;;;0.98;0.98;;;;;;;;;;5047708;28;20043;-84
2023/12/15 10:19:35;;;;;;;1.65;1.55;;;;;;;;;;5045310;28;20119;-82
2023/12/15 10:22:04;;;;;;;1.75;1.42;;;;;;;;;;5051433;28;20127;-81
2023/12/15 10:24:29;;;;;;;1.75;1.10;;;;;;;;;;5049644;28;20032;-78
2023/12/15 10:26:55;;;;;;;1.80;1.27;;;;;;;;;;5056563;28;20020;-80
2023/12/15 10:29:23;;;;;;;1.90;0.60;;;;;;;;;;5055874;28;20493;-79
2023/12/15 10:31:50;;;;;;;1.45;0.77;;;;;;;;;;5052111;28;20036;-80
2023/12/15 10:34:15;;;;;;;1.75;1.35;;;;;;;;;;5052383;28;20068;-83
2023/12/15 10:36:46;;;;;;;3.33;1.17;;;;;;;;;;5054616;28;20496;-79
2023/12/15 10:39:17;;;;;;;1.90;1.70;;;;;;;;;;5051599;28;20370;-79
2023/12/15 10:41:43;;;;;;;1.95;1.40;;;;;;;;;;5050986;28;20397;-80
2023/12/15 10:44:12;;;;;;;2.95;1.95;;;;;;;;;;5048581;28;20492;-80
2023/12/15 10:46:42;;;;;;;0.93;0.93;;;;;;;;;;5051448;28;20061;-79
2023/12/15 10:49:09;;;;;;;2.28;1.48;;;;;;;;;;5050613;28;20035;-80
2023/12/15 10:51:38;;;;;;;2.00;1.23;;;;;;;;;;5051214;28;20116;-80
2023/12/15 10:54:05;;;;;;;1.70;1.40;;;;;;;;;;5048990;28;20044;-82
2023/12/15 10:56:31;;;;;;;0.57;0.57;;;;;;;;;;5050634;28;20041;-78
2023/12/15 10:58:56;;;;;;;1.20;1.10;;;;;;;;;;5051829;28;20050;-79
2023/12/15 11:01:23;;;;;;;0.50;0.50;;;;;;;;;;5051001;28;20028;-81
2023/12/15 11:03:49;;;;;;;2.55;1.58;;;;;;;;;;5051558;28;20560;-80
2023/12/15 11:06:29;;;;;;;1.90;1.77;;;;;;;;;;5052093;28;20112;-81
2023/12/15 11:08:59;;;;;;;2.72;1.48;;;;;;;;;;5051075;28;20036;-79
2023/12/15 11:11:25;;;;;;;4.30;1.80;;;;;;;;;;5048903;28;20115;-79
2023/12/15 11:14:01;;;;;;;2.40;1.63;;;;;;;;;;5051799;28;20522;-80
2023/12/15 11:16:30;;;;;;;1.17;1.00;;;;;;;;;;5050207;28;20035;-80
2023/12/15 11:19:00;;;;;;;1.75;1.65;;;;;;;;;;5051839;28;20036;-79
2023/12/15 11:21:26;;;;;;;0.93;0.90;;;;;;;;;;5051269;28;20029;-81
2023/12/15 11:24:00;;;;;;;2.78;1.42;;;;;;;;;;5051494;28;20067;-79
2023/12/15 11:26:30;;;;;;;0.98;0.82;;;;;;;;;;5050580;28;20445;-80
2023/12/15 11:29:11;;;;;;;0.85;0.75;;;;;;;;;;5049783;28;20447;-78
2023/12/15 11:31:40;;;;;;;1.13;1.02;;;;;;;;;;5082874;28;20463;-82
2023/12/15 11:34:06;;;;;;;1.02;0.80;;;;;;;;;;5050266;28;20032;-80
2023/12/15 11:36:41;;;;;;;1.65;1.50;;;;;;;;;;5050940;28;20028;-79
2023/12/15 11:39:11;;;;;;;1.58;0.82;;;;;;;;;;5049521;28;20087;-79
2023/12/15 11:41:41;;;;;;;1.33;1.23;;;;;;;;;;5049768;28;20353;-79
2023/12/15 11:44:06;;;;;;;2.85;1.67;;;;;;;;;;5049637;28;20104;-80
2023/12/15 11:46:33;;;;;;;3.33;2.05;;;;;;;;;;5050713;28;20123;-81
2023/12/15 11:49:00;;;;;;;1.00;0.90;;;;;;;;;;5050423;28;20025;-80
2023/12/15 11:51:28;;;;;;;1.30;1.05;;;;;;;;;;5048221;28;20024;-80
2023/12/15 11:53:53;;;;;;;2.45;1.75;;;;;;;;;;5045594;28;20059;-82
2023/12/15 11:56:19;;;;;;;2.10;1.75;;;;;;;;;;5047566;28;20017;-79
2023/12/15 11:58:45;;;;;;;2.05;1.90;;;;;;;;;;5048290;28;20416;-78
2023/12/15 12:01:12;;;;;;;2.08;1.58;;;;;;;;;;5050532;28;20024;-78
2023/12/15 12:03:37;;;;;;;2.20;1.40;;;;;;;;;;5050963;28;20104;-80
2023/12/15 12:06:08;;;;;;;1.75;1.45;;;;;;;;;;5049555;28;20112;-82
2023/12/15 12:08:35;;;;;;;2.20;1.25;;;;;;;;;;5050908;28;20051;-79
2023/12/15 12:11:02;;;;;;;1.33;1.05;;;;;;;;;;5046705;28;20408;-78
2023/12/15 12:13:35;;;;;;;3.72;2.53;;;;;;;;;;5050118;28;20035;-78
2023/12/15 12:16:01;;;;;;;1.75;1.27;;;;;;;;;;5050239;28;20067;-81
2023/12/15 12:18:27;;;;;;;2.33;1.10;;;;;;;;;;5050651;28;20021;-81
2023/12/15 12:21:06;;;;;;;2.05;1.30;;;;;;;;;;5049092;28;20090;-79
2023/12/15 12:23:32;;;;;;;2.53;2.15;;;;;;;;;;5050509;28;20033;-79
2023/12/15 12:25:59;;;;;;;1.33;1.17;;;;;;;;;;5047589;28;20024;-78
2023/12/15 12:28:25;;;;;;;3.92;2.28;;;;;;;;;;5049857;28;20036;-80
2023/12/15 12:30:51;;;;;;;2.45;1.95;;;;;;;;;;5049009;28;20397;-78
2023/12/15 12:33:18;;;;;;;0.95;0.90;;;;;;;;;;5050248;28;20064;-80
2023/12/15 12:35:44;;;;;;;3.33;0.95;;;;;;;;;;5049966;28;20120;-81
2023/12/15 12:38:09;;;;;;;3.65;1.80;;;;;;;;;;5049806;28;20111;-81
2023/12/15 12:40:36;;;;;;;2.08;1.88;;;;;;;;;;5049491;28;20044;-79
2023/12/15 12:43:01;;;;;;;0.73;0.73;;;;;;;;;;5048127;28;20033;-80
2023/12/15 12:45:31;;;;;;;5.32;1.67;;;;;;;;;;5048498;28;20036;-79
2023/12/15 12:47:56;;;;;;;1.05;1.00;;;;;;;;;;5049386;28;20520;-80
2023/12/15 12:50:22;;;;;;;2.13;1.20;;;;;;;;;;5048282;28;20120;-82
2023/12/15 12:52:48;;;;;;;4.65;2.10;;;;;;;;;;5049912;28;20132;-79
2023/12/15 12:55:14;;;;;;;1.65;1.15;;;;;;;;;;5049254;28;20031;-79
2023/12/15 12:57:39;;;;;;;1.50;1.40;;;;;;;;;;5050155;28;20048;-77
2023/12/15 13:00:08;;;;;;;1.90;1.15;;;;;;;;;;5050044;28;20127;-82
2023/12/15 13:02:42;;;;;;;1.00;0.85;;;;;;;;;;5047823;28;20427;-79
2023/12/15 13:05:08;;;;;;;0.75;0.75;;;;;;;;;;5045868;28;20021;-80
2023/12/15 13:07:36;;;;;;;0.82;0.82;;;;;;;;;;5046934;28;20055;-80
2023/12/15 13:10:06;;;;;;;0.60;0.60;;;;;;;;;;5045629;28;20021;-79
2023/12/15 13:12:31;;;;;;;;;;;;;;;;;;5048459;28;20051;-79
2023/12/15 13:14:57;;;;;;;0.30;0.30;;;;;;;;;;5051050;28;19920;-80
2023/12/15 13:17:22;;;;;;;0.22;0.22;;;;;;;;;;5050304;28;20117;-80
2023/12/15 13:19:48;;;;;;;1.48;1.38;;;;;;;;;;5055291;28;20024;-82
2023/12/15 13:22:13;;;;;;;2.70;0.93;;;;;;;;;;5053936;28;20041;-81
2023/12/15 13:24:38;;;;;;;1.08;1.00;;;;;;;;;;5047843;28;20413;-79
2023/12/15 13:27:04;;;;;;;2.75;0.98;;;;;;;;;;5048940;28;20032;-81
2023/12/15 13:29:29;;;;;;;1.10;1.00;;;;;;;;;;5044856;28;20036;-81
2023/12/15 13:31:57;;;;;;;3.70;1.92;;;;;;;;;;5043819;28;20511;-78
2023/12/15 13:34:22;;;;;;;2.70;2.05;;;;;;;;;;5044208;28;20434;-79
2023/12/15 13:36:48;;;;;;;3.30;2.72;;;;;;;;;;5047631;28;20150;-79
2023/12/15 13:39:15;;;;;;;0.40;0.40;;;;;;;;;;5048062;28;20516;-80
2023/12/15 13:41:41;;;;;;;2.20;1.67;;;;;;;;;;5049341;28;20473;-79
2023/12/15 13:44:12;;;;;;;1.65;1.55;;;;;;;;;;5048925;28;20039;-82
2023/12/15 13:46:37;;;;;;;1.17;1.08;;;;;;;;;;5047461;28;20519;-80
2023/12/15 13:49:05;;;;;;;1.55;1.08;;;;;;;;;;5048653;28;20033;-82
2023/12/15 13:51:31;;;;;;;4.40;2.00;;;;;;;;;;5047953;28;20063;-82
2023/12/15 13:53:56;;;;;;;3.50;1.60;;;;;;;;;;5048899;28;20063;-81
2023/12/15 13:56:23;;;;;;;2.85;0.73;;;;;;;;;;5049148;28;20060;-80
2023/12/15 13:58:49;;;;;;;0.28;0.28;;;;;;;;;;5049145;28;20396;-80
2023/12/15 14:01:17;;;;;;;0.85;0.80;;;;;;;;;;5052434;28;20099;-84
2023/12/15 14:03:43;;;;;;;2.08;1.23;;;;;;;;;;5054650;28;20028;-81
2023/12/15 14:06:11;;;;;;;2.72;2.13;;;;;;;;;;5051593;28;20024;-82
2023/12/15 14:08:37;;;;;;;0.35;0.35;;;;;;;;;;5054897;28;20546;-83
2023/12/15 14:11:02;;;;;;;0.82;0.77;;;;;;;;;;5053294;28;20025;-82
2023/12/15 14:13:28;;;;;;;0.82;0.82;;;;;;;;;;5053485;28;20048;-82
2023/12/15 14:15:54;;;;;;;9.73;0.75;;;;;;;;;;5053045;28;20032;-84
2023/12/15 14:18:19;;;;;;;0.30;0.30;;;;;;;;;;5053832;28;20033;-85
2023/12/15 14:20:45;;;;;;;0.20;0.20;;;;;;;;;;5054200;28;20032;-83
2023/12/15 14:23:12;;;;;;;0.60;0.60;;;;;;;;;;5052330;28;20056;-84
2023/12/15 14:25:40;;;;;;;0.30;0.30;;;;;;;;;;5051727;28;20020;-84
2023/12/15 14:28:06;;;;;;;0.50;0.50;;;;;;;;;;5051481;28;20028;-83
2023/12/15 14:30:31;;;;;;;1.75;1.23;;;;;;;;;;5051301;28;20029;-85
2023/12/15 14:32:58;;;;;;;1.10;1.00;;;;;;;;;;5053676;28;20037;-84
2023/12/15 14:35:24;;;;;;;0.47;0.47;;;;;;;;;;5050533;28;20033;-85
2023/12/15 14:37:49;;;;;;;1.05;0.70;;;;;;;;;;5050945;28;20063;-85
2023/12/15 14:40:15;;;;;;;2.55;2.30;;;;;;;;;;5047988;28;20721;-83
2023/12/15 14:42:40;;;;;;;1.92;1.45;;;;;;;;;;5049316;28;20048;-82
2023/12/15 14:45:06;;;;;;;3.08;1.75;;;;;;;;;;5050995;28;20056;-81
2023/12/15 14:47:31;;;;;;;3.25;2.42;;;;;;;;;;5051942;28;20037;-80
2023/12/15 14:49:57;;;;;;;1.38;1.27;;;;;;;;;;5049976;28;20051;-83
2023/12/15 14:52:26;;;;;;;1.50;1.33;;;;;;;;;;5047888;28;20025;-85
2023/12/15 14:54:51;;;;;;;0.88;0.88;;;;;;;;;;5050511;28;20536;-85
2023/12/15 14:57:17;;;;;;;0.40;0.40;;;;;;;;;;5046566;28;20095;-84
2023/12/15 14:59:43;;;;;;;0.57;0.57;;;;;;;;;;5050671;28;20029;-85
2023/12/15 15:02:10;;;;;;;2.67;1.13;;;;;;;;;;5048374;28;20024;-85
2023/12/15 15:04:36;;;;;;;1.05;0.95;;;;;;;;;;5082427;28;20021;-85
2023/12/15 15:07:03;;;;;;;0.47;0.35;;;;;;;;;;5049391;28;20048;-82
2023/12/15 15:09:29;;;;;;;0.90;0.52;;;;;;;;;;5049676;28;20025;-84